sensor_id;sensor_type;location;lat;lon;timestamp;temperature;humidity
40151;DHT22;25866;52.420;10.640;2023-04-01T00:02:20;9.50;99.90
40151;DHT22;25866;52.420;10.640;2023-04-01T00:04:46;9.50;99.90
40151;DHT22;25866;52.420;10.640;2023-04-01T00:07:12;9.50;99.90
40151;DHT22;25866;52.420;10.640;2023-04-01T00:09:37;9.40;99.90
40151;DHT22;25866;52.420;10.640;2023-04-01T00:12:04;9.50;99.90
40151;DHT22;25866;52.420;10.640;2023-04-01T00:14:30;9.40;99.90
40151;DHT22;25866;52.420;10.640;2023-04-01T00:16:55;9.40;99.90
40151;DHT22;25866;52.420;10.640;2023-04-01T00:19:22;9.40;99.90
40151;DHT22;25866;52.420;10.640;2023-04-01T00:21:47;9.40;99.90
40151;DHT22;25866;52.420;10.640;2023-04-01T00:24:13;9.40;99.90
40151;DHT22;25866;52.420;10.640;2023-04-01T00:26:39;9.40;99.90
40151;DHT22;25866;52.420;10.640;2023-04-01T00:29:07;9.40;99.90
40151;DHT22;25866;52.420;10.640;2023-04-01T00:31:33;9.40;99.90
40151;DHT22;25866;52.420;10.640;2023-04-01T00:33:59;9.40;99.90
40151;DHT22;25866;52.420;10.640;2023-04-01T00:36:25;9.40;99.90
40151;DHT22;25866;52.420;10.640;2023-04-01T00:38:51;9.50;99.90
40151;DHT22;25866;52.420;10.640;2023-04-01T00:41:18;9.50;99.90
40151;DHT22;25866;52.420;10.640;2023-04-01T00:43:47;9.50;99.90
40151;DHT22;25866;52.420;10.640;2023-04-01T00:46:13;9.50;99.90
40151;DHT22;25866;52.420;10.640;2023-04-01T00:48:45;9.50;99.90
40151;DHT22;25866;52.420;10.640;2023-04-01T00:51:19;9.50;99.90
40151;DHT22;25866;52.420;10.640;2023-04-01T00:53:48;9.50;99.90
40151;DHT22;25866;52.420;10.640;2023-04-01T00:56:22;9.50;99.90
40151;DHT22;25866;52.420;10.640;2023-04-01T00:59:11;9.40;99.90
40151;DHT22;25866;52.420;10.640;2023-04-01T01:01:37;9.50;99.90
40151;DHT22;25866;52.420;10.640;2023-04-01T01:04:04;9.40;99.90
40151;DHT22;25866;52.420;10.640;2023-04-01T01:06:54;9.40;99.90
40151;DHT22;25866;52.420;10.640;2023-04-01T01:12:14;9.40;99.90
40151;DHT22;25866;52.420;10.640;2023-04-01T01:32:19;9.40;99.90
40151;DHT22;25866;52.420;10.640;2023-04-01T01:37:43;9.40;99.90
40151;DHT22;25866;52.420;10.640;2023-04-01T01:40:12;9.40;99.90
40151;DHT22;25866;52.420;10.640;2023-04-01T01:42:43;9.40;99.90
40151;DHT22;25866;52.420;10.640;2023-04-01T01:45:11;9.40;99.90
40151;DHT22;25866;52.420;10.640;2023-04-01T01:47:40;9.40;99.90
40151;DHT22;25866;52.420;10.640;2023-04-01T01:50:07;9.40;99.90
40151;DHT22;25866;52.420;10.640;2023-04-01T01:52:33;9.40;99.90
40151;DHT22;25866;52.420;10.640;2023-04-01T01:54:59;9.40;99.90
40151;DHT22;25866;52.420;10.640;2023-04-01T01:57:31;9.40;99.90
40151;DHT22;25866;52.420;10.640;2023-04-01T02:00:09;9.40;99.90
40151;DHT22;25866;52.420;10.640;2023-04-01T02:02:44;9.40;99.90
40151;DHT22;25866;52.420;10.640;2023-04-01T02:05:14;9.40;99.90
40151;DHT22;25866;52.420;10.640;2023-04-01T02:07:44;9.40;99.90
40151;DHT22;25866;52.420;10.640;2023-04-01T02:10:13;9.40;99.90
40151;DHT22;25866;52.420;10.640;2023-04-01T02:12:40;9.40;99.90
40151;DHT22;25866;52.420;10.640;2023-04-01T02:15:12;9.40;99.90
40151;DHT22;25866;52.420;10.640;2023-04-01T02:17:43;9.40;99.90
40151;DHT22;25866;52.420;10.640;2023-04-01T02:20:20;9.40;99.90
40151;DHT22;25866;52.420;10.640;2023-04-01T02:22:52;9.40;99.90
40151;DHT22;25866;52.420;10.640;2023-04-01T02:25:30;9.40;99.90
40151;DHT22;25866;52.420;10.640;2023-04-01T02:28:00;9.30;99.90
40151;DHT22;25866;52.420;10.640;2023-04-01T02:30:29;9.40;99.90
40151;DHT22;25866;52.420;10.640;2023-04-01T02:32:57;9.40;99.90
40151;DHT22;25866;52.420;10.640;2023-04-01T02:35:25;9.30;99.90
40151;DHT22;25866;52.420;10.640;2023-04-01T02:37:52;9.30;99.90
40151;DHT22;25866;52.420;10.640;2023-04-01T02:40:19;9.30;99.90
40151;DHT22;25866;52.420;10.640;2023-04-01T02:42:45;9.30;99.90
40151;DHT22;25866;52.420;10.640;2023-04-01T02:45:11;9.30;99.90
40151;DHT22;25866;52.420;10.640;2023-04-01T02:47:37;9.30;99.90
40151;DHT22;25866;52.420;10.640;2023-04-01T02:50:04;9.30;99.90
40151;DHT22;25866;52.420;10.640;2023-04-01T02:52:30;9.30;99.90
40151;DHT22;25866;52.420;10.640;2023-04-01T02:54:57;9.30;99.90
40151;DHT22;25866;52.420;10.640;2023-04-01T02:57:23;9.30;99.90
40151;DHT22;25866;52.420;10.640;2023-04-01T02:59:49;9.30;99.90
40151;DHT22;25866;52.420;10.640;2023-04-01T03:02:15;9.30;99.90
40151;DHT22;25866;52.420;10.640;2023-04-01T03:04:41;9.30;99.90
40151;DHT22;25866;52.420;10.640;2023-04-01T03:07:07;9.30;99.90
40151;DHT22;25866;52.420;10.640;2023-04-01T03:09:36;9.30;99.90
40151;DHT22;25866;52.420;10.640;2023-04-01T03:12:02;9.30;99.90
40151;DHT22;25866;52.420;10.640;2023-04-01T03:14:28;9.30;99.90
40151;DHT22;25866;52.420;10.640;2023-04-01T03:16:53;9.20;99.90
40151;DHT22;25866;52.420;10.640;2023-04-01T03:19:20;9.20;99.90
40151;DHT22;25866;52.420;10.640;2023-04-01T03:21:46;9.20;99.90
40151;DHT22;25866;52.420;10.640;2023-04-01T03:24:11;9.20;99.90
40151;DHT22;25866;52.420;10.640;2023-04-01T03:26:37;9.20;99.90
40151;DHT22;25866;52.420;10.640;2023-04-01T03:29:03;9.20;99.90
40151;DHT22;25866;52.420;10.640;2023-04-01T03:31:28;9.30;99.90
40151;DHT22;25866;52.420;10.640;2023-04-01T03:33:54;9.20;99.90
40151;DHT22;25866;52.420;10.640;2023-04-01T03:36:20;9.30;99.90
40151;DHT22;25866;52.420;10.640;2023-04-01T03:38:46;9.20;99.90
40151;DHT22;25866;52.420;10.640;2023-04-01T03:41:13;9.20;99.90
40151;DHT22;25866;52.420;10.640;2023-04-01T03:43:40;9.20;99.90
40151;DHT22;25866;52.420;10.640;2023-04-01T03:46:05;9.20;99.90
40151;DHT22;25866;52.420;10.640;2023-04-01T03:48:32;9.20;99.90
40151;DHT22;25866;52.420;10.640;2023-04-01T03:50:57;9.20;99.90
40151;DHT22;25866;52.420;10.640;2023-04-01T03:53:23;9.20;99.90
40151;DHT22;25866;52.420;10.640;2023-04-01T03:55:49;9.20;99.90
40151;DHT22;25866;52.420;10.640;2023-04-01T03:58:17;9.20;99.90
40151;DHT22;25866;52.420;10.640;2023-04-01T04:00:43;9.10;99.90
40151;DHT22;25866;52.420;10.640;2023-04-01T04:03:09;9.10;99.90
40151;DHT22;25866;52.420;10.640;2023-04-01T04:05:34;9.10;99.90
40151;DHT22;25866;52.420;10.640;2023-04-01T04:08:00;9.10;99.90
40151;DHT22;25866;52.420;10.640;2023-04-01T04:10:26;9.10;99.90
40151;DHT22;25866;52.420;10.640;2023-04-01T04:12:52;9.10;99.90
40151;DHT22;25866;52.420;10.640;2023-04-01T04:15:18;9.10;99.90
40151;DHT22;25866;52.420;10.640;2023-04-01T04:17:45;9.10;99.90
40151;DHT22;25866;52.420;10.640;2023-04-01T04:20:11;9.10;99.90
40151;DHT22;25866;52.420;10.640;2023-04-01T04:22:37;9.10;99.90
40151;DHT22;25866;52.420;10.640;2023-04-01T04:25:02;9.10;99.90
40151;DHT22;25866;52.420;10.640;2023-04-01T04:27:28;9.10;99.90
40151;DHT22;25866;52.420;10.640;2023-04-01T04:29:54;9.10;99.90
40151;DHT22;25866;52.420;10.640;2023-04-01T04:32:20;9.10;99.90
40151;DHT22;25866;52.420;10.640;2023-04-01T04:34:45;9.10;99.90
40151;DHT22;25866;52.420;10.640;2023-04-01T04:37:11;9.10;99.90
40151;DHT22;25866;52.420;10.640;2023-04-01T04:39:37;9.10;99.90
40151;DHT22;25866;52.420;10.640;2023-04-01T04:42:02;9.10;99.90
40151;DHT22;25866;52.420;10.640;2023-04-01T04:44:28;9.10;99.90
40151;DHT22;25866;52.420;10.640;2023-04-01T04:46:54;9.10;99.90
40151;DHT22;25866;52.420;10.640;2023-04-01T04:49:21;9.10;99.90
40151;DHT22;25866;52.420;10.640;2023-04-01T04:51:46;9.10;99.90
40151;DHT22;25866;52.420;10.640;2023-04-01T04:54:12;9.10;99.90
40151;DHT22;25866;52.420;10.640;2023-04-01T04:56:38;9.10;99.90
40151;DHT22;25866;52.420;10.640;2023-04-01T04:59:05;9.10;99.90
40151;DHT22;25866;52.420;10.640;2023-04-01T05:01:31;9.10;99.90
40151;DHT22;25866;52.420;10.640;2023-04-01T05:03:58;9.10;99.90
40151;DHT22;25866;52.420;10.640;2023-04-01T05:06:24;9.10;99.90
40151;DHT22;25866;52.420;10.640;2023-04-01T05:08:56;9.10;99.90
40151;DHT22;25866;52.420;10.640;2023-04-01T05:11:22;9.10;99.90
40151;DHT22;25866;52.420;10.640;2023-04-01T05:13:48;9.10;99.90
40151;DHT22;25866;52.420;10.640;2023-04-01T05:16:19;9.10;99.90
40151;DHT22;25866;52.420;10.640;2023-04-01T05:18:45;9.10;99.90
40151;DHT22;25866;52.420;10.640;2023-04-01T05:21:13;9.20;99.90
40151;DHT22;25866;52.420;10.640;2023-04-01T05:23:48;9.10;99.90
40151;DHT22;25866;52.420;10.640;2023-04-01T05:26:14;9.10;99.90
40151;DHT22;25866;52.420;10.640;2023-04-01T05:28:47;9.10;99.90
40151;DHT22;25866;52.420;10.640;2023-04-01T05:31:13;9.20;99.90
40151;DHT22;25866;52.420;10.640;2023-04-01T05:33:39;9.20;99.90
40151;DHT22;25866;52.420;10.640;2023-04-01T05:36:12;9.10;99.90
40151;DHT22;25866;52.420;10.640;2023-04-01T05:38:39;9.20;99.90
40151;DHT22;25866;52.420;10.640;2023-04-01T05:41:05;9.20;99.90
40151;DHT22;25866;52.420;10.640;2023-04-01T05:43:30;9.20;99.90
40151;DHT22;25866;52.420;10.640;2023-04-01T05:45:57;9.20;99.90
40151;DHT22;25866;52.420;10.640;2023-04-01T05:48:23;9.20;99.90
40151;DHT22;25866;52.420;10.640;2023-04-01T05:50:51;9.30;99.90
40151;DHT22;25866;52.420;10.640;2023-04-01T05:53:16;9.30;99.90
40151;DHT22;25866;52.420;10.640;2023-04-01T05:55:42;9.30;99.90
40151;DHT22;25866;52.420;10.640;2023-04-01T05:58:08;9.40;99.90
40151;DHT22;25866;52.420;10.640;2023-04-01T06:00:33;9.40;99.90
40151;DHT22;25866;52.420;10.640;2023-04-01T06:02:59;9.40;99.90
40151;DHT22;25866;52.420;10.640;2023-04-01T06:05:28;9.40;99.90
40151;DHT22;25866;52.420;10.640;2023-04-01T06:08:06;9.40;99.90
40151;DHT22;25866;52.420;10.640;2023-04-01T06:13:38;9.40;99.90
40151;DHT22;25866;52.420;10.640;2023-04-01T06:16:29;9.40;99.90
40151;DHT22;25866;52.420;10.640;2023-04-01T06:22:21;9.40;99.90
40151;DHT22;25866;52.420;10.640;2023-04-01T06:27:55;9.50;99.90
40151;DHT22;25866;52.420;10.640;2023-04-01T06:36:09;9.60;99.90
40151;DHT22;25866;52.420;10.640;2023-04-01T06:41:31;9.60;99.90
40151;DHT22;25866;52.420;10.640;2023-04-01T06:44:37;9.60;99.90
40151;DHT22;25866;52.420;10.640;2023-04-01T06:50:06;9.60;99.90
40151;DHT22;25866;52.420;10.640;2023-04-01T06:58:05;9.70;99.90
40151;DHT22;25866;52.420;10.640;2023-04-01T07:00:37;9.70;99.90
40151;DHT22;25866;52.420;10.640;2023-04-01T07:06:04;9.80;99.90
40151;DHT22;25866;52.420;10.640;2023-04-01T07:08:34;9.90;99.90
40151;DHT22;25866;52.420;10.640;2023-04-01T07:11:04;10.00;99.90
40151;DHT22;25866;52.420;10.640;2023-04-01T07:13:39;10.10;99.90
40151;DHT22;25866;52.420;10.640;2023-04-01T07:16:08;10.20;99.90
40151;DHT22;25866;52.420;10.640;2023-04-01T07:21:35;10.30;99.90
40151;DHT22;25866;52.420;10.640;2023-04-01T07:24:10;10.30;99.90
40151;DHT22;25866;52.420;10.640;2023-04-01T07:26:40;10.40;99.90
40151;DHT22;25866;52.420;10.640;2023-04-01T07:29:11;10.40;99.90
40151;DHT22;25866;52.420;10.640;2023-04-01T07:37:21;10.60;99.90
40151;DHT22;25866;52.420;10.640;2023-04-01T07:40:17;10.60;99.90
40151;DHT22;25866;52.420;10.640;2023-04-01T07:45:38;10.70;99.90
40151;DHT22;25866;52.420;10.640;2023-04-01T07:48:33;10.80;99.90
40151;DHT22;25866;52.420;10.640;2023-04-01T07:53:52;10.90;99.90
40151;DHT22;25866;52.420;10.640;2023-04-01T07:59:07;11.00;99.90
40151;DHT22;25866;52.420;10.640;2023-04-01T08:04:23;11.10;99.90
40151;DHT22;25866;52.420;10.640;2023-04-01T08:09:35;11.30;99.90
40151;DHT22;25866;52.420;10.640;2023-04-01T08:12:14;11.40;99.90
40151;DHT22;25866;52.420;10.640;2023-04-01T08:17:27;11.50;99.90
40151;DHT22;25866;52.420;10.640;2023-04-01T08:20:14;11.60;99.90
40151;DHT22;25866;52.420;10.640;2023-04-01T08:22:45;11.70;99.90
40151;DHT22;25866;52.420;10.640;2023-04-01T08:25:20;11.80;99.90
40151;DHT22;25866;52.420;10.640;2023-04-01T08:28:21;11.80;99.90
40151;DHT22;25866;52.420;10.640;2023-04-01T08:33:28;11.80;99.90
40151;DHT22;25866;52.420;10.640;2023-04-01T08:36:02;11.70;99.90
40151;DHT22;25866;52.420;10.640;2023-04-01T08:38:30;11.70;99.90
40151;DHT22;25866;52.420;10.640;2023-04-01T08:40:59;11.80;99.90
40151;DHT22;25866;52.420;10.640;2023-04-01T08:45:56;11.80;99.90
40151;DHT22;25866;52.420;10.640;2023-04-01T08:48:45;11.90;99.90
40151;DHT22;25866;52.420;10.640;2023-04-01T09:00:00;12.20;99.90
40151;DHT22;25866;52.420;10.640;2023-04-01T09:05:35;12.50;99.90
40151;DHT22;25866;52.420;10.640;2023-04-01T09:10:59;12.70;99.90
40151;DHT22;25866;52.420;10.640;2023-04-01T09:14:02;12.80;99.90
40151;DHT22;25866;52.420;10.640;2023-04-01T09:22:09;12.80;99.90
40151;DHT22;25866;52.420;10.640;2023-04-01T09:27:27;12.70;99.90
40151;DHT22;25866;52.420;10.640;2023-04-01T09:35:50;12.50;99.90
40151;DHT22;25866;52.420;10.640;2023-04-01T09:38:58;12.40;99.90
40151;DHT22;25866;52.420;10.640;2023-04-01T10:50:41;12.30;99.90
40151;DHT22;25866;52.420;10.640;2023-04-01T10:53:50;12.50;99.90
40151;DHT22;25866;52.420;10.640;2023-04-01T10:56:40;12.50;99.90
40151;DHT22;25866;52.420;10.640;2023-04-01T11:14:09;12.40;99.90
40151;DHT22;25866;52.420;10.640;2023-04-01T11:22:34;12.10;99.90
40151;DHT22;25866;52.420;10.640;2023-04-01T11:25:30;12.10;99.90
40151;DHT22;25866;52.420;10.640;2023-04-01T11:28:07;12.00;99.90
40151;DHT22;25866;52.420;10.640;2023-04-01T11:44:32;11.90;99.90
40151;DHT22;25866;52.420;10.640;2023-04-01T11:47:36;11.90;99.90
40151;DHT22;25866;52.420;10.640;2023-04-01T11:50:16;11.90;99.90
40151;DHT22;25866;52.420;10.640;2023-04-01T11:59:11;11.90;99.90
40151;DHT22;25866;52.420;10.640;2023-04-01T12:03:54;11.80;99.90
40151;DHT22;25866;52.420;10.640;2023-04-01T12:12:02;11.90;99.90
40151;DHT22;25866;52.420;10.640;2023-04-01T12:20:28;12.20;99.90
40151;DHT22;25866;52.420;10.640;2023-04-01T12:23:09;12.30;99.90
40151;DHT22;25866;52.420;10.640;2023-04-01T12:37:37;11.90;99.90
40151;DHT22;25866;52.420;10.640;2023-04-01T12:45:33;11.70;99.90
40151;DHT22;25866;52.420;10.640;2023-04-01T12:51:01;11.90;99.90
40151;DHT22;25866;52.420;10.640;2023-04-01T12:56:30;11.70;99.90
40151;DHT22;25866;52.420;10.640;2023-04-01T13:04:39;11.40;99.90
40151;DHT22;25866;52.420;10.640;2023-04-01T13:18:24;10.60;99.90
40151;DHT22;25866;52.420;10.640;2023-04-01T13:26:59;10.60;99.90
40151;DHT22;25866;52.420;10.640;2023-04-01T13:29:36;10.50;99.90
40151;DHT22;25866;52.420;10.640;2023-04-01T13:35:06;10.30;99.90
40151;DHT22;25866;52.420;10.640;2023-04-01T13:37:54;10.10;99.90
40151;DHT22;25866;52.420;10.640;2023-04-01T13:40:36;10.00;99.90
40151;DHT22;25866;52.420;10.640;2023-04-01T13:43:29;10.00;99.90
40151;DHT22;25866;52.420;10.640;2023-04-01T13:48:58;9.80;99.90
40151;DHT22;25866;52.420;10.640;2023-04-01T13:51:33;9.70;99.90
40151;DHT22;25866;52.420;10.640;2023-04-01T13:59:59;9.70;99.90
40151;DHT22;25866;52.420;10.640;2023-04-01T14:02:53;9.70;99.90
40151;DHT22;25866;52.420;10.640;2023-04-01T14:05:44;9.70;99.90
40151;DHT22;25866;52.420;10.640;2023-04-01T14:19:22;9.50;99.90
40151;DHT22;25866;52.420;10.640;2023-04-01T14:33:34;9.10;99.90
40151;DHT22;25866;52.420;10.640;2023-04-01T14:36:29;9.00;99.90
40151;DHT22;25866;52.420;10.640;2023-04-01T14:44:36;8.80;99.90
40151;DHT22;25866;52.420;10.640;2023-04-01T14:47:43;8.80;99.90
40151;DHT22;25866;52.420;10.640;2023-04-01T14:50:23;8.80;99.90
40151;DHT22;25866;52.420;10.640;2023-04-01T14:52:56;8.70;99.90
40151;DHT22;25866;52.420;10.640;2023-04-01T15:00:59;8.70;99.90
40151;DHT22;25866;52.420;10.640;2023-04-01T15:03:29;8.70;99.90
40151;DHT22;25866;52.420;10.640;2023-04-01T15:12:02;8.80;99.90
40151;DHT22;25866;52.420;10.640;2023-04-01T15:33:45;8.40;99.90
40151;DHT22;25866;52.420;10.640;2023-04-01T15:36:38;8.30;99.90
40151;DHT22;25866;52.420;10.640;2023-04-01T15:39:20;8.30;99.90
40151;DHT22;25866;52.420;10.640;2023-04-01T15:42:11;8.20;99.90
40151;DHT22;25866;52.420;10.640;2023-04-01T15:55:35;8.20;99.90
40151;DHT22;25866;52.420;10.640;2023-04-01T16:02:07;8.10;99.90
40151;DHT22;25866;52.420;10.640;2023-04-01T16:06:52;8.00;99.90
40151;DHT22;25866;52.420;10.640;2023-04-01T16:15:44;7.70;99.90
40151;DHT22;25866;52.420;10.640;2023-04-01T16:18:53;7.60;99.90
40151;DHT22;25866;52.420;10.640;2023-04-01T16:27:28;7.50;99.90
40151;DHT22;25866;52.420;10.640;2023-04-01T16:30:33;7.50;99.90
40151;DHT22;25866;52.420;10.640;2023-04-01T16:33:12;7.50;99.90
40151;DHT22;25866;52.420;10.640;2023-04-01T16:35:43;7.40;99.90
40151;DHT22;25866;52.420;10.640;2023-04-01T16:43:37;7.40;99.90
40151;DHT22;25866;52.420;10.640;2023-04-01T16:46:43;7.40;99.90
40151;DHT22;25866;52.420;10.640;2023-04-01T16:51:51;7.30;99.90
40151;DHT22;25866;52.420;10.640;2023-04-01T16:59:59;7.30;99.90
40151;DHT22;25866;52.420;10.640;2023-04-01T17:02:35;7.20;99.90
40151;DHT22;25866;52.420;10.640;2023-04-01T17:05:12;7.20;99.90
40151;DHT22;25866;52.420;10.640;2023-04-01T17:08:10;7.20;99.90
40151;DHT22;25866;52.420;10.640;2023-04-01T17:10:56;7.10;99.90
40151;DHT22;25866;52.420;10.640;2023-04-01T17:22:04;6.80;99.90
40151;DHT22;25866;52.420;10.640;2023-04-01T17:25:01;6.80;99.90
40151;DHT22;25866;52.420;10.640;2023-04-01T17:28:04;6.70;99.90
40151;DHT22;25866;52.420;10.640;2023-04-01T17:38:44;6.70;99.90
40151;DHT22;25866;52.420;10.640;2023-04-01T17:41:44;6.70;99.90
40151;DHT22;25866;52.420;10.640;2023-04-01T17:47:21;6.60;99.90
40151;DHT22;25866;52.420;10.640;2023-04-01T17:50:23;6.60;99.90
40151;DHT22;25866;52.420;10.640;2023-04-01T17:53:19;6.60;99.90
40151;DHT22;25866;52.420;10.640;2023-04-01T17:59:05;6.50;99.90
40151;DHT22;25866;52.420;10.640;2023-04-01T18:04:44;6.50;99.90
40151;DHT22;25866;52.420;10.640;2023-04-01T18:07:30;6.40;99.90
40151;DHT22;25866;52.420;10.640;2023-04-01T18:12:58;6.40;99.90
40151;DHT22;25866;52.420;10.640;2023-04-01T18:15:59;6.30;99.90
40151;DHT22;25866;52.420;10.640;2023-04-01T18:21:48;6.30;99.90
40151;DHT22;25866;52.420;10.640;2023-04-01T18:24:32;6.30;99.90
40151;DHT22;25866;52.420;10.640;2023-04-01T18:32:21;6.20;99.90
40151;DHT22;25866;52.420;10.640;2023-04-01T18:38:12;6.10;99.90
40151;DHT22;25866;52.420;10.640;2023-04-01T18:40:45;6.10;99.90
40151;DHT22;25866;52.420;10.640;2023-04-01T18:46:29;6.00;99.90
40151;DHT22;25866;52.420;10.640;2023-04-01T18:49:20;6.00;99.90
40151;DHT22;25866;52.420;10.640;2023-04-01T18:51:53;5.90;99.90
40151;DHT22;25866;52.420;10.640;2023-04-01T18:54:30;5.90;99.90
40151;DHT22;25866;52.420;10.640;2023-04-01T18:57:13;5.90;99.90
40151;DHT22;25866;52.420;10.640;2023-04-01T19:05:12;5.80;99.90
40151;DHT22;25866;52.420;10.640;2023-04-01T19:07:44;5.70;99.90
40151;DHT22;25866;52.420;10.640;2023-04-01T19:10:30;5.70;99.90
40151;DHT22;25866;52.420;10.640;2023-04-01T19:13:15;5.70;99.90
40151;DHT22;25866;52.420;10.640;2023-04-01T19:15:52;5.60;99.90
40151;DHT22;25866;52.420;10.640;2023-04-01T19:18:47;5.70;99.90
40151;DHT22;25866;52.420;10.640;2023-04-01T19:26:53;5.50;99.90
40151;DHT22;25866;52.420;10.640;2023-04-01T19:29:26;5.40;99.90
40151;DHT22;25866;52.420;10.640;2023-04-01T19:43:39;5.30;99.90
40151;DHT22;25866;52.420;10.640;2023-04-01T19:46:28;5.30;99.90
40151;DHT22;25866;52.420;10.640;2023-04-01T20:11:38;5.00;99.90
40151;DHT22;25866;52.420;10.640;2023-04-01T20:19:43;5.00;99.90
40151;DHT22;25866;52.420;10.640;2023-04-01T20:24:51;4.90;99.90
40151;DHT22;25866;52.420;10.640;2023-04-01T20:27:23;5.00;99.90
40151;DHT22;25866;52.420;10.640;2023-04-01T20:32:45;4.90;99.90
40151;DHT22;25866;52.420;10.640;2023-04-01T20:38:23;4.90;99.90
40151;DHT22;25866;52.420;10.640;2023-04-01T20:41:11;4.90;99.90
40151;DHT22;25866;52.420;10.640;2023-04-01T20:44:04;4.90;99.90
40151;DHT22;25866;52.420;10.640;2023-04-01T20:46:53;4.90;99.90
40151;DHT22;25866;52.420;10.640;2023-04-01T20:52:21;4.80;99.90
40151;DHT22;25866;52.420;10.640;2023-04-01T21:06:26;4.70;99.90
40151;DHT22;25866;52.420;10.640;2023-04-01T21:17:34;4.70;99.90
40151;DHT22;25866;52.420;10.640;2023-04-01T21:26:06;4.60;99.90
40151;DHT22;25866;52.420;10.640;2023-04-01T21:31:53;4.50;99.90
40151;DHT22;25866;52.420;10.640;2023-04-01T21:40:15;4.50;99.90
40151;DHT22;25866;52.420;10.640;2023-04-01T21:43:02;4.50;99.90
40151;DHT22;25866;52.420;10.640;2023-04-01T21:51:12;4.50;99.90
40151;DHT22;25866;52.420;10.640;2023-04-01T21:54:24;4.50;99.90
40151;DHT22;25866;52.420;10.640;2023-04-01T21:59:54;4.30;99.90
40151;DHT22;25866;52.420;10.640;2023-04-01T22:05:31;4.30;99.90
40151;DHT22;25866;52.420;10.640;2023-04-01T22:08:29;4.30;99.90
40151;DHT22;25866;52.420;10.640;2023-04-01T22:13:59;4.20;99.90
40151;DHT22;25866;52.420;10.640;2023-04-01T22:16:54;4.20;99.90
40151;DHT22;25866;52.420;10.640;2023-04-01T22:19:45;4.10;99.90
40151;DHT22;25866;52.420;10.640;2023-04-01T22:28:26;4.10;99.90
40151;DHT22;25866;52.420;10.640;2023-04-01T22:31:00;4.10;99.90
40151;DHT22;25866;52.420;10.640;2023-04-01T22:40:11;4.00;99.90
40151;DHT22;25866;52.420;10.640;2023-04-01T22:42:23;3.90;99.90
40151;DHT22;25866;52.420;10.640;2023-04-01T22:51:11;3.90;99.90
40151;DHT22;25866;52.420;10.640;2023-04-01T22:56:40;3.90;99.90
40151;DHT22;25866;52.420;10.640;2023-04-01T22:59:15;3.80;99.90
40151;DHT22;25866;52.420;10.640;2023-04-01T23:02:11;3.80;99.90
40151;DHT22;25866;52.420;10.640;2023-04-01T23:04:41;3.80;99.90
40151;DHT22;25866;52.420;10.640;2023-04-01T23:10:50;3.70;99.90
40151;DHT22;25866;52.420;10.640;2023-04-01T23:13:24;3.70;99.90
40151;DHT22;25866;52.420;10.640;2023-04-01T23:15:54;3.60;99.90
40151;DHT22;25866;52.420;10.640;2023-04-01T23:18:30;3.50;99.90
40151;DHT22;25866;52.420;10.640;2023-04-01T23:21:11;3.50;99.90
40151;DHT22;25866;52.420;10.640;2023-04-01T23:26:59;3.50;99.90
40151;DHT22;25866;52.420;10.640;2023-04-01T23:29:26;3.50;99.90
40151;DHT22;25866;52.420;10.640;2023-04-01T23:31:58;3.50;99.90
40151;DHT22;25866;52.420;10.640;2023-04-01T23:34:35;3.50;99.90
40151;DHT22;25866;52.420;10.640;2023-04-01T23:37:12;3.50;99.90
40151;DHT22;25866;52.420;10.640;2023-04-01T23:39:43;3.50;99.90
40151;DHT22;25866;52.420;10.640;2023-04-01T23:42:38;3.40;99.90
40151;DHT22;25866;52.420;10.640;2023-04-01T23:45:11;3.40;99.90
40151;DHT22;25866;52.420;10.640;2023-04-01T23:47:39;3.40;99.90
40151;DHT22;25866;52.420;10.640;2023-04-01T23:50:21;3.40;99.90
40151;DHT22;25866;52.420;10.640;2023-04-01T23:55:28;3.30;99.90
